Time;durP1;ratioP1;P1;durP2;ratioP2;P2;SDS_P1;SDS_P2;PMS_P1;PMS_P2;Temp;Humidity;BMP_temperature;BMP_pressure;BME280_temperature;BME280_humidity;BME280_pressure;Samples;Min_cycle;Max_cycle;Signal;HPM_P1;HPM_P2
2022/12/30 00:01:31;;;;;;;13.23;8.60;;;9.60;99.90;;;;;;5090031;27;20222;-75
2022/12/30 00:04:19;;;;;;;14.38;9.02;;;9.70;99.90;;;;;;5101231;27;20219;-76
2022/12/30 00:07:10;;;;;;;11.73;8.10;;;9.70;99.90;;;;;;5094382;28;20214;-77
2022/12/30 00:09:58;;;;;;;14.25;8.63;;;9.60;99.90;;;;;;5094292;28;20219;-75
2022/12/30 00:34:48;;;;;;;12.07;8.35;;;9.50;99.90;;;;;;5095708;27;20223;-76
2022/12/30 00:37:38;;;;;;;16.40;8.60;;;9.50;99.90;;;;;;5092173;28;20219;-74
2022/12/30 00:40:26;;;;;;;14.02;8.80;;;9.50;99.90;;;;;;5097473;27;20250;-73
2022/12/30 00:43:14;;;;;;;11.80;7.95;;;9.50;99.90;;;;;;5097405;27;20215;-74
2022/12/30 00:46:03;;;;;;;14.55;8.68;;;9.40;99.90;;;;;;5096157;27;20368;-75
2022/12/30 00:58:14;;;;;;;13.75;8.00;;;9.30;99.90;;;;;;5100045;27;20214;-76
2022/12/30 01:01:02;;;;;;;15.63;8.88;;;9.20;99.90;;;;;;5088144;27;20807;-76
2022/12/30 01:03:52;;;;;;;14.18;8.93;;;9.10;99.90;;;;;;5098826;27;20669;-74
2022/12/30 01:06:41;;;;;;;14.98;8.85;;;9.10;99.90;;;;;;5094639;27;20223;-75
2022/12/30 01:09:30;;;;;;;12.15;8.02;;;9.20;99.90;;;;;;5099496;27;20230;-76
2022/12/30 01:12:20;;;;;;;13.93;8.77;;;9.10;99.90;;;;;;5093438;27;20226;-76
2022/12/30 01:15:10;;;;;;;13.90;9.07;;;9.10;99.90;;;;;;5115116;27;20209;-77
2022/12/30 01:17:59;;;;;;;13.20;9.07;;;9.00;99.90;;;;;;5130503;27;20215;-76
2022/12/30 01:20:47;;;;;;;14.68;9.38;;;9.10;99.90;;;;;;5095243;27;20303;-76
2022/12/30 01:23:37;;;;;;;12.93;8.82;;;9.00;99.90;;;;;;5099089;27;20227;-77
2022/12/30 01:26:26;;;;;;;13.98;8.57;;;9.00;99.90;;;;;;5095430;27;20565;-76
2022/12/30 01:29:21;;;;;;;13.77;8.60;;;9.10;99.90;;;;;;5092157;27;20310;-77
2022/12/30 01:32:12;;;;;;;13.13;8.48;;;9.00;99.90;;;;;;5098161;27;20261;-77
2022/12/30 01:35:01;;;;;;;13.43;8.88;;;8.90;99.90;;;;;;5094569;28;21007;-76
2022/12/30 01:37:50;;;;;;;13.70;9.05;;;9.00;99.90;;;;;;5101173;28;20219;-76
2022/12/30 01:40:42;;;;;;;13.43;8.98;;;9.00;99.90;;;;;;5099084;27;20231;-77
2022/12/30 01:43:46;;;;;;;13.02;8.48;;;8.90;99.90;;;;;;5096536;28;20231;-76
2022/12/30 01:46:37;;;;;;;13.55;9.15;;;9.00;99.90;;;;;;5101143;27;20219;-76
2022/12/30 01:49:25;;;;;;;12.90;9.18;;;9.00;99.90;;;;;;5092242;27;20227;-75
2022/12/30 01:52:17;;;;;;;15.82;9.75;;;9.00;99.90;;;;;;5100219;27;20223;-75
2022/12/30 01:55:10;;;;;;;14.52;8.63;;;8.90;99.90;;;;;;5099627;27;20227;-74
2022/12/30 01:58:02;;;;;;;15.32;9.40;;;8.80;99.90;;;;;;5093852;27;20227;-75
2022/12/30 02:00:50;;;;;;;14.90;9.20;;;8.70;99.90;;;;;;5095169;28;20226;-75
2022/12/30 02:03:45;;;;;;;14.63;8.98;;;8.70;99.90;;;;;;5089454;27;20272;-75
2022/12/30 02:06:46;;;;;;;16.23;9.77;;;8.60;99.90;;;;;;5108349;27;20228;-76
2022/12/30 02:09:36;;;;;;;14.23;9.13;;;8.60;99.90;;;;;;5128574;27;20596;-76
2022/12/30 02:12:25;;;;;;;13.13;8.93;;;8.70;99.90;;;;;;5116687;27;20824;-75
2022/12/30 02:15:14;;;;;;;14.23;9.23;;;8.70;99.90;;;;;;5091995;27;20227;-75
2022/12/30 02:18:10;;;;;;;16.02;9.63;;;8.70;99.90;;;;;;5090914;27;20710;-75
2022/12/30 02:21:23;;;;;;;13.95;9.00;;;8.70;99.90;;;;;;5098045;28;20238;-75
2022/12/30 02:25:07;;;;;;;15.70;9.40;;;8.80;99.90;;;;;;5112527;27;20881;-76
2022/12/30 02:28:16;;;;;;;13.02;9.20;;;8.80;99.90;;;;;;5039846;28;20232;-75
2022/12/30 02:31:23;;;;;;;14.77;8.70;;;8.80;99.90;;;;;;5095760;27;20222;-76
2022/12/30 02:34:19;;;;;;;15.73;9.40;;;8.80;99.90;;;;;;5094683;27;20219;-73
2022/12/30 02:37:15;;;;;;;15.13;9.75;;;8.90;99.90;;;;;;5097917;27;20215;-76
2022/12/30 02:40:09;;;;;;;15.00;9.15;;;8.90;99.90;;;;;;5101103;27;20222;-75
2022/12/30 02:46:12;;;;;;;15.65;9.20;;;8.90;99.90;;;;;;5099788;27;21008;-75
2022/12/30 02:49:05;;;;;;;15.55;9.80;;;8.80;99.90;;;;;;5096041;28;20648;-75
2022/12/30 02:55:02;;;;;;;16.58;10.65;;;8.60;99.90;;;;;;5102665;27;20673;-77
2022/12/30 02:57:50;;;;;;;15.63;10.27;;;8.60;99.90;;;;;;5100836;27;20230;-75
2022/12/30 03:04:10;;;;;;;15.63;10.48;;;8.50;99.90;;;;;;5103234;27;20326;-73
2022/12/30 03:07:11;;;;;;;17.05;9.95;;;8.50;99.90;;;;;;5100227;27;20215;-73
2022/12/30 03:13:26;;;;;;;16.38;9.80;;;8.50;99.90;;;;;;5100835;28;20772;-71
2022/12/30 03:16:22;;;;;;;17.45;10.45;;;8.50;99.90;;;;;;5094702;27;20218;-75
2022/12/30 03:19:17;;;;;;;18.25;10.07;;;8.50;99.90;;;;;;5124901;27;20223;-76
2022/12/30 03:27:02;;;;;;;16.08;10.35;;;8.40;99.90;;;;;;5096934;28;20350;-74
2022/12/30 03:28:28;;;;;;;15.52;10.13;;;8.40;99.90;;;;;;5097514;27;20210;-75
2022/12/30 03:31:18;;;;;;;17.23;10.50;;;8.30;99.90;;;;;;5096122;28;20783;-76
2022/12/30 03:34:07;;;;;;;18.05;11.10;;;8.40;99.90;;;;;;5101618;28;20718;-75
2022/12/30 03:37:06;;;;;;;18.15;10.93;;;8.20;99.90;;;;;;5122294;27;20219;-72
2022/12/30 03:40:00;;;;;;;15.48;10.05;;;8.30;99.90;;;;;;5101250;27;20230;-75
2022/12/30 03:42:50;;;;;;;15.25;10.20;;;8.30;99.90;;;;;;5089475;28;20269;-76
2022/12/30 03:45:40;;;;;;;15.77;10.75;;;8.30;99.90;;;;;;5088868;27;20219;-74
2022/12/30 03:48:29;;;;;;;16.83;10.88;;;8.30;99.90;;;;;;5115487;27;20594;-76
2022/12/30 03:51:17;;;;;;;18.13;10.25;;;8.30;99.90;;;;;;5097001;28;20745;-76
2022/12/30 03:54:08;;;;;;;16.75;10.32;;;8.20;99.90;;;;;;5102921;27;20219;-76
2022/12/30 03:56:57;;;;;;;17.25;10.32;;;8.30;99.90;;;;;;5089291;28;20318;-74
2022/12/30 03:59:46;;;;;;;17.05;10.02;;;8.30;99.90;;;;;;5099651;27;20250;-76
2022/12/30 04:02:34;;;;;;;17.57;10.77;;;8.30;99.90;;;;;;5100155;27;20229;-75
2022/12/30 04:05:23;;;;;;;15.88;10.40;;;8.30;99.90;;;;;;5097001;28;20314;-75
2022/12/30 04:08:12;;;;;;;20.10;11.48;;;8.30;99.90;;;;;;5095910;27;20238;-76
2022/12/30 04:11:02;;;;;;;16.50;10.93;;;8.30;99.90;;;;;;5097429;27;20221;-76
2022/12/30 04:13:52;;;;;;;18.30;10.00;;;8.30;99.90;;;;;;5091771;27;20398;-76
2022/12/30 04:16:41;;;;;;;17.75;10.68;;;8.20;99.90;;;;;;5125187;27;20571;-75
2022/12/30 04:19:30;;;;;;;18.90;9.93;;;8.20;99.90;;;;;;5099283;27;20226;-75
2022/12/30 04:22:18;;;;;;;17.58;10.13;;;8.20;99.90;;;;;;5097837;28;20710;-76
2022/12/30 04:25:08;;;;;;;16.90;10.25;;;8.20;99.90;;;;;;5102042;27;20299;-77
2022/12/30 04:27:58;;;;;;;17.88;10.57;;;8.20;99.90;;;;;;5097755;27;20230;-76
2022/12/30 04:30:49;;;;;;;17.48;10.50;;;8.30;99.90;;;;;;5099828;27;20218;-77
2022/12/30 04:33:38;;;;;;;16.05;10.15;;;8.30;99.90;;;;;;5087174;28;20769;-77
2022/12/30 04:36:28;;;;;;;16.02;10.13;;;8.30;99.90;;;;;;5101634;28;20215;-76
2022/12/30 04:39:17;;;;;;;20.33;10.90;;;8.20;99.90;;;;;;5099983;27;20849;-74
2022/12/30 04:42:05;;;;;;;15.80;10.18;;;8.20;99.90;;;;;;5090789;28;20231;-75
2022/12/30 04:44:56;;;;;;;16.38;10.50;;;8.20;99.90;;;;;;5099614;27;20219;-76
2022/12/30 04:47:45;;;;;;;18.67;10.65;;;8.30;99.90;;;;;;5101921;27;20223;-77
2022/12/30 04:50:33;;;;;;;16.02;11.05;;;8.40;99.90;;;;;;5096771;28;20215;-77
2022/12/30 04:53:22;;;;;;;17.27;10.63;;;8.40;99.90;;;;;;5099547;27;20219;-77
2022/12/30 04:56:11;;;;;;;18.55;10.52;;;8.50;99.90;;;;;;5116937;27;20219;-77
2022/12/30 04:59:00;;;;;;;16.42;10.85;;;8.30;99.90;;;;;;5102788;28;20231;-77
2022/12/30 05:01:51;;;;;;;17.07;9.80;;;8.30;99.90;;;;;;5097287;27;20714;-77
2022/12/30 05:04:40;;;;;;;14.77;9.52;;;8.30;99.90;;;;;;5093632;28;20219;-76
2022/12/30 05:07:29;;;;;;;15.77;10.38;;;8.40;99.90;;;;;;5121286;27;20856;-74
2022/12/30 05:10:18;;;;;;;16.48;9.80;;;8.40;99.90;;;;;;5096081;28;20225;-76
2022/12/30 05:13:07;;;;;;;17.88;10.38;;;8.40;99.90;;;;;;5088620;27;20230;-76
2022/12/30 05:15:55;;;;;;;15.60;10.30;;;8.40;99.90;;;;;;5092577;28;20239;-74
2022/12/30 05:18:45;;;;;;;14.75;10.55;;;8.40;99.90;;;;;;5106243;27;20241;-76
2022/12/30 05:21:34;;;;;;;13.93;10.02;;;8.50;99.90;;;;;;5088276;27;20226;-75
2022/12/30 05:27:29;;;;;;;15.35;10.18;;;8.50;99.90;;;;;;5118349;27;20841;-76
2022/12/30 05:30:19;;;;;;;16.27;9.45;;;8.50;99.90;;;;;;5097195;27;20229;-77
2022/12/30 05:33:08;;;;;;;17.53;10.87;;;8.50;99.90;;;;;;5095580;28;20256;-76
2022/12/30 05:35:58;;;;;;;16.85;10.52;;;8.60;99.90;;;;;;5097313;27;20747;-76
2022/12/30 05:38:47;;;;;;;20.50;11.10;;;8.60;99.90;;;;;;5095013;28;20318;-78
2022/12/30 05:41:36;;;;;;;17.80;10.80;;;8.70;99.90;;;;;;5101303;27;20990;-76
2022/12/30 05:44:25;;;;;;;19.00;10.67;;;8.70;99.90;;;;;;5090131;28;20229;-77
2022/12/30 05:47:14;;;;;;;15.27;10.40;;;8.60;99.90;;;;;;5107552;27;20254;-77
2022/12/30 05:50:04;;;;;;;22.13;10.95;;;8.60;99.90;;;;;;5094814;27;20207;-77
2022/12/30 05:52:54;;;;;;;19.75;11.10;;;8.70;99.90;;;;;;5099153;27;20231;-76
2022/12/30 05:55:43;;;;;;;18.92;10.57;;;8.70;99.90;;;;;;5092652;28;20235;-77
2022/12/30 05:58:32;;;;;;;15.70;10.75;;;8.70;99.90;;;;;;5096393;27;20227;-76
2022/12/30 06:01:20;;;;;;;15.75;10.23;;;8.80;99.90;;;;;;5098722;27;20219;-76
2022/12/30 06:04:09;;;;;;;25.00;10.20;;;8.80;99.90;;;;;;5094717;27;20740;-77
2022/12/30 06:06:58;;;;;;;18.85;11.40;;;8.80;99.90;;;;;;5098412;28;20212;-76
2022/12/30 06:09:48;;;;;;;16.77;10.00;;;8.90;99.90;;;;;;5105135;27;20237;-75
2022/12/30 06:12:37;;;;;;;18.80;10.48;;;8.90;99.90;;;;;;5105197;27;20595;-76
2022/12/30 06:15:26;;;;;;;16.33;10.15;;;8.90;99.90;;;;;;5098804;27;20222;-77
2022/12/30 06:18:15;;;;;;;14.98;9.15;;;8.80;99.90;;;;;;5091573;27;20220;-76
2022/12/30 06:21:04;;;;;;;17.52;10.48;;;8.80;99.90;;;;;;5107919;27;20223;-77
2022/12/30 06:23:53;;;;;;;16.85;10.48;;;8.90;99.90;;;;;;5106779;27;20223;-77
2022/12/30 06:26:43;;;;;;;14.77;10.02;;;8.90;99.90;;;;;;5101486;27;20219;-78
2022/12/30 06:29:32;;;;;;;16.25;9.55;;;8.90;99.90;;;;;;5090545;28;21063;-79
2022/12/30 06:32:21;;;;;;;16.15;9.77;;;8.90;99.90;;;;;;5101287;27;20218;-75
2022/12/30 06:35:11;;;;;;;16.50;10.27;;;8.90;99.90;;;;;;5102775;27;20793;-77
2022/12/30 06:38:00;;;;;;;19.35;10.43;;;8.90;99.90;;;;;;5097347;27;20247;-76
2022/12/30 06:40:49;;;;;;;15.95;9.95;;;8.90;99.90;;;;;;5092410;27;20223;-76
2022/12/30 06:43:39;;;;;;;16.10;9.60;;;8.90;99.90;;;;;;5101381;27;20224;-76
2022/12/30 06:46:28;;;;;;;15.68;10.00;;;8.80;99.90;;;;;;5093148;28;20298;-75
2022/12/30 06:49:17;;;;;;;16.40;9.70;;;8.90;99.90;;;;;;5096940;27;20222;-76
2022/12/30 06:52:06;;;;;;;14.45;9.40;;;8.90;99.90;;;;;;5092283;28;20220;-76
2022/12/30 06:54:55;;;;;;;17.80;9.77;;;8.90;99.90;;;;;;5096977;27;20219;-75
2022/12/30 06:57:43;;;;;;;13.90;9.23;;;8.90;99.90;;;;;;5094420;27;20599;-75
2022/12/30 07:00:35;;;;;;;13.90;9.18;;;8.90;99.90;;;;;;5097744;27;20219;-78
2022/12/30 07:03:23;;;;;;;18.88;9.77;;;8.90;99.90;;;;;;5085244;27;20223;-77
2022/12/30 07:06:12;;;;;;;15.48;9.18;;;9.00;99.90;;;;;;5116539;27;20674;-76
2022/12/30 07:09:01;;;;;;;16.20;9.40;;;9.00;99.90;;;;;;5096430;28;20220;-77
2022/12/30 07:11:50;;;;;;;15.00;9.25;;;9.10;99.90;;;;;;5096060;27;20716;-75
2022/12/30 07:14:38;;;;;;;20.27;9.60;;;9.10;99.90;;;;;;5098059;28;20302;-76
2022/12/30 07:17:28;;;;;;;13.68;8.55;;;9.10;99.90;;;;;;5130121;27;20275;-74
2022/12/30 07:20:17;;;;;;;14.68;8.60;;;9.10;99.90;;;;;;5096790;27;20228;-76
2022/12/30 07:23:07;;;;;;;13.52;8.52;;;9.10;99.90;;;;;;5095290;27;20713;-77
2022/12/30 07:25:55;;;;;;;14.75;8.38;;;9.20;99.90;;;;;;5092580;27;20244;-77
2022/12/30 07:28:44;;;;;;;12.50;8.02;;;9.20;99.90;;;;;;5093320;28;20311;-77
2022/12/30 07:31:41;;;;;;;17.23;8.45;;;9.20;99.90;;;;;;5099503;27;20211;-77
2022/12/30 07:34:31;;;;;;;13.63;8.45;;;9.20;99.90;;;;;;5109434;27;20268;-77
2022/12/30 07:37:26;;;;;;;12.43;8.00;;;9.20;99.90;;;;;;5097880;28;20672;-78
2022/12/30 07:40:15;;;;;;;14.73;8.13;;;9.30;99.90;;;;;;5093746;27;20234;-78
2022/12/30 07:43:04;;;;;;;12.80;8.02;;;9.30;99.90;;;;;;5099641;27;20704;-78
2022/12/30 07:45:53;;;;;;;16.40;9.18;;;9.30;99.90;;;;;;5120368;27;20250;-80
2022/12/30 07:48:42;;;;;;;14.45;8.25;;;9.30;99.90;;;;;;5096922;27;20591;-76
2022/12/30 07:51:32;;;;;;;18.02;8.43;;;9.30;99.90;;;;;;5096619;27;20227;-77
2022/12/30 07:54:21;;;;;;;15.48;7.88;;;9.40;99.90;;;;;;5104167;27;20215;-78
2022/12/30 07:57:10;;;;;;;13.30;7.88;;;9.40;99.90;;;;;;5090596;27;20231;-81
2022/12/30 07:59:59;;;;;;;12.25;7.82;;;9.40;99.90;;;;;;5096612;27;20364;-83
2022/12/30 08:02:48;;;;;;;10.57;7.40;;;9.50;99.90;;;;;;5093616;27;20939;-76
2022/12/30 08:05:37;;;;;;;15.43;7.32;;;9.50;99.90;;;;;;5097893;27;20328;-78
2022/12/30 08:08:29;;;;;;;15.40;8.18;;;9.50;99.90;;;;;;5120721;27;20229;-77
2022/12/30 08:11:18;;;;;;;12.73;7.32;;;9.50;99.90;;;;;;5097854;27;20219;-88
2022/12/30 08:14:07;;;;;;;13.85;7.80;;;9.70;99.90;;;;;;5094762;27;20219;-81
2022/12/30 08:16:55;;;;;;;13.93;8.38;;;9.60;99.90;;;;;;5085275;28;20215;-84
2022/12/30 08:19:44;;;;;;;15.18;7.80;;;9.60;99.90;;;;;;5094986;27;20230;-84
2022/12/30 08:22:33;;;;;;;11.93;7.97;;;9.60;99.90;;;;;;5122015;27;20261;-81
2022/12/30 08:25:23;;;;;;;13.07;7.00;;;9.60;99.90;;;;;;5097424;27;20223;-81
2022/12/30 08:28:12;;;;;;;12.15;7.53;;;9.60;99.90;;;;;;5112058;27;20650;-77
2022/12/30 08:31:06;;;;;;;12.32;7.35;;;9.60;99.90;;;;;;5103337;27;20214;-77
2022/12/30 08:33:56;;;;;;;15.32;8.38;;;9.60;99.90;;;;;;5136313;27;20267;-76
2022/12/30 08:36:45;;;;;;;11.85;7.20;;;9.50;99.90;;;;;;5099091;28;20601;-78
2022/12/30 08:39:34;;;;;;;13.65;7.47;;;9.50;99.90;;;;;;5101302;28;20273;-77
2022/12/30 08:42:24;;;;;;;9.98;6.60;;;9.50;99.90;;;;;;5105500;27;20754;-81
2022/12/30 08:45:13;;;;;;;15.48;7.22;;;9.50;99.90;;;;;;5096017;28;20226;-78
2022/12/30 08:48:01;;;;;;;13.90;6.63;;;9.50;99.90;;;;;;5090724;28;20215;-80
2022/12/30 08:50:50;;;;;;;11.63;6.95;;;9.50;99.90;;;;;;5093961;28;20226;-80
2022/12/30 08:53:46;;;;;;;13.60;7.57;;;9.50;99.90;;;;;;5093348;28;20601;-80
2022/12/30 08:56:39;;;;;;;13.27;7.53;;;9.50;99.90;;;;;;5099164;27;20219;-80
2022/12/30 08:59:29;;;;;;;12.27;7.30;;;9.50;99.90;;;;;;5091221;27;20219;-79
2022/12/30 09:02:18;;;;;;;15.65;7.50;;;9.40;99.90;;;;;;5091922;28;20211;-79
2022/12/30 09:05:08;;;;;;;10.45;6.60;;;9.50;99.90;;;;;;5098968;28;20234;-79
2022/12/30 09:07:57;;;;;;;13.80;6.97;;;9.50;99.90;;;;;;5093767;28;20759;-79
2022/12/30 09:10:57;;;;;;;13.63;6.88;;;9.60;99.90;;;;;;5092197;28;20697;-79
2022/12/30 09:13:46;;;;;;;13.73;6.85;;;9.70;99.90;;;;;;5096826;28;20234;-78
2022/12/30 09:16:36;;;;;;;13.05;6.40;;;9.60;99.90;;;;;;5094261;27;20218;-82
2022/12/30 09:19:25;;;;;;;11.50;6.90;;;9.70;99.90;;;;;;5096953;27;20223;-86
2022/12/30 09:22:14;;;;;;;15.00;8.25;;;9.70;99.90;;;;;;5095007;27;20222;-80
2022/12/30 09:25:03;;;;;;;11.75;6.50;;;9.80;99.90;;;;;;5088492;28;20220;-81
2022/12/30 09:27:52;;;;;;;13.40;7.35;;;9.90;99.90;;;;;;5092362;28;20780;-81
2022/12/30 09:30:41;;;;;;;14.85;6.07;;;9.80;99.90;;;;;;5091638;27;20222;-81
2022/12/30 09:33:31;;;;;;;13.05;6.55;;;9.70;99.90;;;;;;5093357;28;20265;-83
2022/12/30 09:36:20;;;;;;;11.77;6.32;;;9.70;99.90;;;;;;5095323;27;20594;-82
2022/12/30 09:39:10;;;;;;;11.45;5.88;;;9.70;99.90;;;;;;5095795;27;20226;-82
2022/12/30 09:45:18;;;;;;;13.77;5.88;;;9.60;99.90;;;;;;5094056;28;20219;-81
2022/12/30 09:48:11;;;;;;;12.02;5.22;;;9.70;99.90;;;;;;5098249;27;20237;-81
2022/12/30 09:51:05;;;;;;;12.98;5.63;;;9.70;99.90;;;;;;5096548;27;20230;-81
2022/12/30 09:53:58;;;;;;;10.85;5.18;;;9.70;99.90;;;;;;5086836;27;20353;-83
2022/12/30 09:56:49;;;;;;;132.38;10.75;;;9.70;99.90;;;;;;5092813;27;20235;-81
2022/12/30 09:59:39;;;;;;;65.20;7.68;;;9.70;99.90;;;;;;5093875;28;20867;-81
2022/12/30 10:02:30;;;;;;;57.83;7.05;;;9.70;99.90;;;;;;5094570;27;20220;-82
2022/12/30 10:05:33;;;;;;;51.15;7.18;;;9.70;99.90;;;;;;5092434;27;20218;-82
2022/12/30 10:08:37;;;;;;;33.72;5.68;;;9.70;99.90;;;;;;5102266;27;20330;-81
2022/12/30 10:11:34;;;;;;;10.35;4.47;;;9.70;99.90;;;;;;5089194;28;20296;-81
2022/12/30 10:14:30;;;;;;;8.55;4.40;;;9.70;99.90;;;;;;5089476;28;20220;-82
2022/12/30 10:17:35;;;;;;;7.57;4.03;;;9.60;99.90;;;;;;5096073;27;20230;-81
2022/12/30 10:20:51;;;;;;;9.68;4.30;;;9.70;99.90;;;;;;5089202;27;20219;-82
2022/12/30 10:23:56;;;;;;;7.82;3.67;;;9.70;99.90;;;;;;5096582;27;20678;-81
2022/12/30 10:26:48;;;;;;;10.32;3.90;;;9.70;99.90;;;;;;5097876;27;20227;-82
2022/12/30 10:29:43;;;;;;;8.68;4.25;;;9.80;99.90;;;;;;5103235;27;20702;-82
2022/12/30 10:32:34;;;;;;;11.93;4.60;;;9.80;99.90;;;;;;5098368;27;20219;-82
2022/12/30 10:35:25;;;;;;;7.05;4.10;;;9.80;99.90;;;;;;5106885;27;20241;-82
2022/12/30 10:38:16;;;;;;;10.80;4.18;;;9.80;99.90;;;;;;5097943;27;20238;-82
2022/12/30 10:41:16;;;;;;;9.45;4.03;;;9.80;99.90;;;;;;5104112;28;20788;-82
2022/12/30 10:44:16;;;;;;;15.23;4.78;;;9.80;99.90;;;;;;5094919;28;20215;-82
2022/12/30 10:47:26;;;;;;;9.55;4.18;;;9.80;99.90;;;;;;5126724;27;20227;-82
2022/12/30 10:50:23;;;;;;;14.02;4.45;;;9.90;99.90;;;;;;5110198;27;20259;-82
2022/12/30 10:53:16;;;;;;;10.80;4.10;;;9.90;99.90;;;;;;5098150;27;20359;-82
2022/12/30 10:56:17;;;;;;;12.02;4.20;;;9.90;99.90;;;;;;5123082;27;20748;-84
2022/12/30 10:59:11;;;;;;;8.13;3.75;;;10.00;99.90;;;;;;5096833;28;20227;-83
2022/12/30 11:02:12;;;;;;;7.10;3.45;;;9.90;99.90;;;;;;5092456;28;20215;-84
2022/12/30 11:05:03;;;;;;;8.57;3.47;;;9.80;99.90;;;;;;5125225;27;20256;-80
2022/12/30 11:07:55;;;;;;;8.38;3.38;;;9.90;99.90;;;;;;5101722;28;20234;-81
2022/12/30 11:10:44;;;;;;;11.13;3.25;;;9.90;99.90;;;;;;5101410;27;20226;-83
2022/12/30 11:16:42;;;;;;;12.35;3.20;;;9.80;99.90;;;;;;5096141;27;20230;-81
2022/12/30 11:19:31;;;;;;;12.50;3.67;;;9.90;99.90;;;;;;5100224;27;20230;-80
2022/12/30 11:22:20;;;;;;;8.00;2.90;;;9.90;99.90;;;;;;5096496;28;20326;-81
2022/12/30 11:25:18;;;;;;;8.75;3.03;;;9.90;99.90;;;;;;5123606;27;20783;-82
2022/12/30 11:28:15;;;;;;;10.35;3.10;;;9.90;99.90;;;;;;5093945;28;20220;-81
2022/12/30 11:31:09;;;;;;;6.28;2.75;;;9.80;99.90;;;;;;5128989;27;20963;-81
2022/12/30 11:34:01;;;;;;;7.72;2.85;;;9.80;99.90;;;;;;5089934;28;20219;-82
2022/12/30 11:36:50;;;;;;;9.18;2.80;;;9.80;99.90;;;;;;5094563;27;20292;-81
2022/12/30 11:39:39;;;;;;;9.25;2.85;;;9.80;99.90;;;;;;5096015;27;20234;-81
2022/12/30 11:42:31;;;;;;;9.60;3.00;;;9.90;99.90;;;;;;5093470;27;20589;-81
2022/12/30 11:45:21;;;;;;;15.73;3.20;;;9.80;99.90;;;;;;5103490;27;20290;-78
2022/12/30 11:48:24;;;;;;;9.02;2.72;;;9.80;99.90;;;;;;5093181;27;20724;-82
2022/12/30 11:51:20;;;;;;;9.23;2.55;;;9.80;99.90;;;;;;5105430;27;20252;-82
2022/12/30 11:54:16;;;;;;;8.63;2.40;;;9.80;99.90;;;;;;5094126;27;20724;-82
2022/12/30 11:57:07;;;;;;;7.47;2.60;;;9.80;99.90;;;;;;5110638;27;20698;-83
2022/12/30 11:59:59;;;;;;;7.20;3.25;;;9.80;99.90;;;;;;5102517;27;20227;-83
2022/12/30 12:02:50;;;;;;;7.53;2.90;;;9.90;99.90;;;;;;5099436;27;20329;-82
2022/12/30 12:05:43;;;;;;;10.00;2.53;;;9.80;99.90;;;;;;5090457;27;20308;-83
2022/12/30 12:08:34;;;;;;;8.25;3.60;;;9.90;99.90;;;;;;5091513;27;20219;-82
2022/12/30 12:11:28;;;;;;;8.20;2.67;;;9.80;99.90;;;;;;5116976;27;20215;-82
2022/12/30 12:14:22;;;;;;;11.32;2.88;;;9.80;99.90;;;;;;5093936;27;20301;-82
2022/12/30 12:17:22;;;;;;;7.57;2.97;;;9.80;99.90;;;;;;5092858;27;20223;-81
2022/12/30 12:20:20;;;;;;;8.23;3.03;;;9.80;99.90;;;;;;5099289;27;20728;-82
2022/12/30 12:23:22;;;;;;;10.80;3.00;;;9.80;99.90;;;;;;5100396;27;20270;-82
2022/12/30 12:26:16;;;;;;;8.50;2.70;;;9.80;99.90;;;;;;5097012;28;20274;-82
2022/12/30 12:29:05;;;;;;;6.88;2.75;;;9.80;99.90;;;;;;5126122;27;20233;-83
2022/12/30 12:32:11;;;;;;;9.13;2.83;;;9.70;99.90;;;;;;5094440;28;20239;-82
2022/12/30 12:35:29;;;;;;;6.05;2.85;;;9.80;99.90;;;;;;5099448;27;20916;-83
2022/12/30 12:38:34;;;;;;;12.93;3.50;;;9.90;99.90;;;;;;5090405;27;20268;-82
2022/12/30 12:41:41;;;;;;;8.35;2.50;;;9.90;99.90;;;;;;5098748;27;20986;-83
2022/12/30 12:44:52;;;;;;;9.30;2.70;;;9.80;99.90;;;;;;5097421;27;21083;-82
2022/12/30 12:48:00;;;;;;;6.50;2.15;;;9.80;99.90;;;;;;5091434;27;20581;-82
2022/12/30 12:51:05;;;;;;;12.90;2.83;;;9.80;99.90;;;;;;5094023;27;20592;-81
2022/12/30 12:54:29;;;;;;;7.22;2.83;;;9.90;99.90;;;;;;5092299;27;20359;-82
2022/12/30 12:57:42;;;;;;;9.50;2.90;;;9.90;99.90;;;;;;5100357;27;20752;-82
2022/12/30 13:00:43;;;;;;;11.07;2.92;;;9.80;99.90;;;;;;5086203;28;20226;-82
2022/12/30 13:03:49;;;;;;;7.40;2.88;;;9.80;99.90;;;;;;5094364;27;20214;-83
2022/12/30 13:06:44;;;;;;;11.77;2.90;;;9.80;99.90;;;;;;5089907;28;20223;-79
2022/12/30 13:10:01;;;;;;;8.98;3.00;;;9.80;99.90;;;;;;5111524;27;20228;-82
2022/12/30 13:13:07;;;;;;;9.30;3.05;;;9.70;99.90;;;;;;5129494;27;20932;-82
2022/12/30 13:15:59;;;;;;;11.23;2.92;;;9.70;99.90;;;;;;5094905;27;20306;-82
2022/12/30 13:18:51;;;;;;;9.05;3.25;;;9.70;99.90;;;;;;5091548;28;20348;-83
2022/12/30 13:21:41;;;;;;;9.30;3.38;;;9.70;99.90;;;;;;5097369;27;20260;-81
2022/12/30 13:24:36;;;;;;;9.82;3.40;;;9.60;99.90;;;;;;5090150;27;20231;-83
2022/12/30 13:27:30;;;;;;;8.40;3.40;;;9.60;99.90;;;;;;5089585;27;20218;-83
2022/12/30 13:30:21;;;;;;;11.85;3.50;;;9.70;99.90;;;;;;5107359;27;20238;-82
2022/12/30 13:33:16;;;;;;;11.50;3.72;;;9.70;99.90;;;;;;5091236;27;20222;-81
2022/12/30 13:36:10;;;;;;;10.27;3.20;;;9.70;99.90;;;;;;5095051;28;20223;-79
2022/12/30 13:39:12;;;;;;;8.18;3.10;;;9.70;99.90;;;;;;5097161;28;20463;-81
2022/12/30 13:42:28;;;;;;;11.15;3.10;;;9.70;99.90;;;;;;5097299;28;20226;-81
2022/12/30 13:45:26;;;;;;;13.73;4.03;;;9.60;99.90;;;;;;5125659;27;20321;-82
2022/12/30 13:48:19;;;;;;;11.27;3.10;;;9.70;99.90;;;;;;5097499;27;20243;-81
2022/12/30 13:51:20;;;;;;;11.75;3.85;;;9.70;99.90;;;;;;5084926;28;20353;-77
2022/12/30 13:54:15;;;;;;;14.75;3.92;;;9.60;99.90;;;;;;5086456;28;20250;-81
2022/12/30 13:57:04;;;;;;;12.63;3.58;;;9.60;99.90;;;;;;5125405;27;20792;-81
2022/12/30 14:00:09;;;;;;;9.27;3.05;;;9.50;99.90;;;;;;5096727;28;20215;-81
2022/12/30 14:03:05;;;;;;;9.38;3.63;;;9.60;99.90;;;;;;5100633;27;20230;-82
2022/12/30 14:05:58;;;;;;;12.60;4.50;;;9.60;99.90;;;;;;5098674;27;21675;-81
2022/12/30 14:09:13;;;;;;;14.30;4.13;;;9.50;99.90;;;;;;5096407;27;20645;-82
2022/12/30 14:12:28;;;;;;;14.77;4.30;;;9.60;99.90;;;;;;5102233;27;20352;-82
2022/12/30 14:15:50;;;;;;;12.20;4.03;;;9.60;99.90;;;;;;5096065;27;20822;-82
2022/12/30 14:18:46;;;;;;;14.02;4.07;;;9.50;99.90;;;;;;5127670;27;20905;-82
2022/12/30 14:21:55;;;;;;;13.45;3.88;;;9.50;99.90;;;;;;5103500;27;20811;-83
2022/12/30 14:24:50;;;;;;;13.05;4.30;;;9.40;99.90;;;;;;5102907;27;20313;-82
2022/12/30 14:27:45;;;;;;;12.45;4.25;;;9.40;99.90;;;;;;5095947;27;20215;-82
2022/12/30 14:30:37;;;;;;;12.88;4.45;;;9.40;99.90;;;;;;5098795;27;20319;-82
2022/12/30 14:33:32;;;;;;;13.18;4.30;;;9.40;99.90;;;;;;5116174;27;20212;-82
2022/12/30 14:36:25;;;;;;;12.95;4.53;;;9.40;99.90;;;;;;5097052;27;20237;-82
2022/12/30 14:39:16;;;;;;;12.07;4.85;;;9.30;99.90;;;;;;5124884;27;20713;-83
2022/12/30 14:42:20;;;;;;;11.48;4.68;;;9.20;99.90;;;;;;5097891;28;20264;-83
2022/12/30 14:45:22;;;;;;;13.65;4.18;;;9.20;99.90;;;;;;5098775;27;20233;-83
2022/12/30 14:48:10;;;;;;;13.75;4.68;;;9.10;99.90;;;;;;5096279;27;20229;-82
2022/12/30 14:50:59;;;;;;;11.15;4.13;;;9.10;99.90;;;;;;5088442;28;20210;-82
2022/12/30 14:53:50;;;;;;;13.23;4.15;;;9.10;99.90;;;;;;5101133;27;20802;-82
2022/12/30 14:56:45;;;;;;;12.50;4.78;;;9.10;99.90;;;;;;5104551;27;20219;-82
2022/12/30 14:59:44;;;;;;;11.57;3.90;;;9.10;99.90;;;;;;5118371;27;20368;-82
2022/12/30 15:02:35;;;;;;;11.20;4.75;;;9.10;99.90;;;;;;5097327;27;20857;-82
2022/12/30 15:05:30;;;;;;;14.15;5.00;;;9.10;99.90;;;;;;5100554;28;20230;-82
2022/12/30 15:08:20;;;;;;;13.75;5.65;;;9.10;99.90;;;;;;5088409;27;20232;-82
2022/12/30 15:11:19;;;;;;;13.88;4.75;;;9.00;99.90;;;;;;5126754;27;20979;-82
2022/12/30 15:14:15;;;;;;;15.45;5.38;;;9.00;99.90;;;;;;5101009;27;20227;-83
2022/12/30 15:17:18;;;;;;;16.75;4.68;;;8.90;99.90;;;;;;5094096;28;20309;-82
2022/12/30 15:20:27;;;;;;;18.30;4.95;;;8.90;99.90;;;;;;5101858;28;20227;-82
2022/12/30 15:23:19;;;;;;;11.77;4.93;;;8.90;99.90;;;;;;5103331;27;21024;-82
2022/12/30 15:26:12;;;;;;;11.23;5.13;;;8.90;99.90;;;;;;5101057;27;20214;-82
2022/12/30 15:29:06;;;;;;;14.20;4.85;;;8.90;99.90;;;;;;5100732;27;20225;-82
2022/12/30 15:31:56;;;;;;;14.15;5.20;;;8.90;99.90;;;;;;5119933;27;20226;-82
2022/12/30 15:34:46;;;;;;;15.73;5.45;;;8.90;99.90;;;;;;5120166;27;20691;-82
2022/12/30 15:37:35;;;;;;;17.48;6.00;;;8.90;99.90;;;;;;5092629;28;20694;-82
2022/12/30 15:40:28;;;;;;;14.13;5.78;;;8.80;99.90;;;;;;5090681;27;20701;-82
2022/12/30 15:43:21;;;;;;;16.15;5.47;;;8.80;99.90;;;;;;5087839;27;20399;-82
2022/12/30 15:46:24;;;;;;;17.95;5.85;;;8.80;99.90;;;;;;5098598;27;20885;-82
2022/12/30 15:49:18;;;;;;;16.60;6.43;;;8.70;99.90;;;;;;5103481;27;20588;-82
2022/12/30 15:52:14;;;;;;;16.60;5.65;;;8.60;99.90;;;;;;5105693;28;20230;-82
2022/12/30 15:55:03;;;;;;;16.40;6.05;;;8.60;99.90;;;;;;5096965;27;20229;-82
2022/12/30 15:57:59;;;;;;;16.88;6.20;;;8.50;99.90;;;;;;5102523;27;20888;-82